sensor_id;sensor_type;location;lat;lon;timestamp;pressure;altitude;pressure_sealevel;temperature;humidity
7532;BME280;3807;49.030;8.714;2023-05-25T00:02:09;99766.91;;;17.62;47.67
7532;BME280;3807;49.030;8.714;2023-05-25T00:04:39;99766.25;;;17.58;47.38
7532;BME280;3807;49.030;8.714;2023-05-25T00:07:04;99770.75;;;17.55;47.27
7532;BME280;3807;49.030;8.714;2023-05-25T00:09:30;99766.75;;;17.49;47.79
7532;BME280;3807;49.030;8.714;2023-05-25T00:11:55;99760.50;;;17.53;47.49
7532;BME280;3807;49.030;8.714;2023-05-25T00:14:22;99760.00;;;17.47;46.99
7532;BME280;3807;49.030;8.714;2023-05-25T00:16:47;99765.25;;;17.45;47.55
7532;BME280;3807;49.030;8.714;2023-05-25T00:19:13;99769.50;;;17.46;47.53
7532;BME280;3807;49.030;8.714;2023-05-25T00:21:39;99763.38;;;17.33;47.50
7532;BME280;3807;49.030;8.714;2023-05-25T00:24:06;99759.78;;;17.35;47.36
7532;BME280;3807;49.030;8.714;2023-05-25T00:26:31;99755.28;;;17.39;47.59
7532;BME280;3807;49.030;8.714;2023-05-25T00:28:57;99758.03;;;17.36;47.42
7532;BME280;3807;49.030;8.714;2023-05-25T00:31:24;99751.38;;;17.32;47.59
7532;BME280;3807;49.030;8.714;2023-05-25T00:33:50;99749.34;;;17.23;47.73
7532;BME280;3807;49.030;8.714;2023-05-25T00:36:15;99740.50;;;17.11;47.46
7532;BME280;3807;49.030;8.714;2023-05-25T00:38:40;99744.41;;;17.02;47.37
7532;BME280;3807;49.030;8.714;2023-05-25T00:41:06;99749.87;;;16.96;47.64
7532;BME280;3807;49.030;8.714;2023-05-25T00:43:31;99744.91;;;16.93;47.77
7532;BME280;3807;49.030;8.714;2023-05-25T00:45:57;99758.69;;;16.92;47.46
7532;BME280;3807;49.030;8.714;2023-05-25T00:48:24;99745.31;;;16.85;47.72
7532;BME280;3807;49.030;8.714;2023-05-25T00:50:55;99744.16;;;16.91;47.76
7532;BME280;3807;49.030;8.714;2023-05-25T00:53:24;99754.00;;;16.83;47.65
7532;BME280;3807;49.030;8.714;2023-05-25T00:56:04;99754.78;;;16.67;47.88
7532;BME280;3807;49.030;8.714;2023-05-25T00:58:32;99755.66;;;16.66;47.68
7532;BME280;3807;49.030;8.714;2023-05-25T01:01:00;99757.34;;;16.67;47.71
7532;BME280;3807;49.030;8.714;2023-05-25T01:03:30;99756.53;;;16.67;47.89
7532;BME280;3807;49.030;8.714;2023-05-25T01:06:03;99757.81;;;16.76;47.50
7532;BME280;3807;49.030;8.714;2023-05-25T01:08:32;99759.09;;;16.67;47.87
7532;BME280;3807;49.030;8.714;2023-05-25T01:10:59;99755.69;;;16.49;47.97
7532;BME280;3807;49.030;8.714;2023-05-25T01:13:27;99756.56;;;16.50;48.09
7532;BME280;3807;49.030;8.714;2023-05-25T01:15:53;99758.13;;;16.52;47.97
7532;BME280;3807;49.030;8.714;2023-05-25T01:18:19;99747.00;;;16.52;48.02
7532;BME280;3807;49.030;8.714;2023-05-25T01:21:12;99757.22;;;16.53;47.70
7532;BME280;3807;49.030;8.714;2023-05-25T01:23:42;99751.56;;;16.47;47.58
7532;BME280;3807;49.030;8.714;2023-05-25T01:26:14;99756.56;;;16.50;47.59
7532;BME280;3807;49.030;8.714;2023-05-25T01:28:43;99748.00;;;16.49;47.59
7532;BME280;3807;49.030;8.714;2023-05-25T01:31:12;99754.03;;;16.48;47.79
7532;BME280;3807;49.030;8.714;2023-05-25T01:33:41;99745.22;;;16.36;47.93
7532;BME280;3807;49.030;8.714;2023-05-25T01:36:06;99754.97;;;16.30;48.53
7532;BME280;3807;49.030;8.714;2023-05-25T01:38:32;99757.84;;;16.24;48.42
7532;BME280;3807;49.030;8.714;2023-05-25T01:40:58;99764.72;;;16.23;48.61
7532;BME280;3807;49.030;8.714;2023-05-25T01:43:24;99758.09;;;16.19;48.51
7532;BME280;3807;49.030;8.714;2023-05-25T01:45:51;99759.88;;;16.17;48.59
7532;BME280;3807;49.030;8.714;2023-05-25T01:48:45;99753.94;;;16.16;48.52
7532;BME280;3807;49.030;8.714;2023-05-25T01:51:27;99761.03;;;16.11;48.71
7532;BME280;3807;49.030;8.714;2023-05-25T01:54:06;99758.75;;;16.05;48.84
7532;BME280;3807;49.030;8.714;2023-05-25T01:56:34;99754.38;;;16.07;48.58
7532;BME280;3807;49.030;8.714;2023-05-25T01:59:01;99750.97;;;16.07;48.35
7532;BME280;3807;49.030;8.714;2023-05-25T02:01:27;99750.28;;;16.03;48.64
7532;BME280;3807;49.030;8.714;2023-05-25T02:03:53;99754.75;;;16.00;48.92
7532;BME280;3807;49.030;8.714;2023-05-25T02:06:19;99756.19;;;15.88;48.84
7532;BME280;3807;49.030;8.714;2023-05-25T02:08:44;99748.19;;;15.94;48.97
7532;BME280;3807;49.030;8.714;2023-05-25T02:11:12;99755.06;;;15.93;48.58
7532;BME280;3807;49.030;8.714;2023-05-25T02:13:37;99748.47;;;15.88;48.66
7532;BME280;3807;49.030;8.714;2023-05-25T02:16:02;99751.41;;;15.80;49.08
7532;BME280;3807;49.030;8.714;2023-05-25T02:18:28;99743.56;;;15.83;49.01
7532;BME280;3807;49.030;8.714;2023-05-25T02:20:53;99747.25;;;15.78;49.00
7532;BME280;3807;49.030;8.714;2023-05-25T02:23:19;99743.72;;;15.80;48.89
7532;BME280;3807;49.030;8.714;2023-05-25T02:25:44;99732.81;;;15.75;49.08
7532;BME280;3807;49.030;8.714;2023-05-25T02:28:10;99740.09;;;15.65;48.95
7532;BME280;3807;49.030;8.714;2023-05-25T02:30:35;99734.87;;;15.49;49.18
7532;BME280;3807;49.030;8.714;2023-05-25T02:33:01;99734.78;;;15.51;49.30
7532;BME280;3807;49.030;8.714;2023-05-25T02:35:26;99744.31;;;15.49;49.64
7532;BME280;3807;49.030;8.714;2023-05-25T02:37:52;99743.41;;;15.50;49.46
7532;BME280;3807;49.030;8.714;2023-05-25T02:40:17;99743.41;;;15.50;49.18
7532;BME280;3807;49.030;8.714;2023-05-25T02:42:43;99748.38;;;15.53;49.24
7532;BME280;3807;49.030;8.714;2023-05-25T02:45:09;99746.66;;;15.54;49.30
7532;BME280;3807;49.030;8.714;2023-05-25T02:47:35;99745.81;;;15.53;49.21
7532;BME280;3807;49.030;8.714;2023-05-25T02:50:01;99746.25;;;15.44;49.30
7532;BME280;3807;49.030;8.714;2023-05-25T02:52:27;99738.75;;;15.39;49.72
7532;BME280;3807;49.030;8.714;2023-05-25T02:54:54;99738.31;;;15.31;49.78
7532;BME280;3807;49.030;8.714;2023-05-25T02:57:20;99740.56;;;15.37;49.40
7532;BME280;3807;49.030;8.714;2023-05-25T02:59:45;99750.78;;;15.39;49.48
7532;BME280;3807;49.030;8.714;2023-05-25T03:02:10;99751.38;;;15.44;49.53
7532;BME280;3807;49.030;8.714;2023-05-25T03:04:36;99750.91;;;15.36;49.36
7532;BME280;3807;49.030;8.714;2023-05-25T03:07:03;99747.75;;;15.31;49.67
7532;BME280;3807;49.030;8.714;2023-05-25T03:09:28;99752.69;;;15.34;49.92
7532;BME280;3807;49.030;8.714;2023-05-25T03:11:53;99750.44;;;15.28;49.88
7532;BME280;3807;49.030;8.714;2023-05-25T03:14:19;99757.94;;;15.13;50.06
7532;BME280;3807;49.030;8.714;2023-05-25T03:16:44;99762.50;;;15.25;49.88
7532;BME280;3807;49.030;8.714;2023-05-25T03:19:09;99756.44;;;15.27;49.83
7532;BME280;3807;49.030;8.714;2023-05-25T03:21:36;99758.00;;;15.12;50.03
7532;BME280;3807;49.030;8.714;2023-05-25T03:24:02;99767.06;;;15.00;50.14
7532;BME280;3807;49.030;8.714;2023-05-25T03:26:27;99762.38;;;15.10;50.29
7532;BME280;3807;49.030;8.714;2023-05-25T03:28:53;99766.94;;;15.03;50.12
7532;BME280;3807;49.030;8.714;2023-05-25T03:31:18;99772.00;;;15.05;50.40
7532;BME280;3807;49.030;8.714;2023-05-25T03:33:43;99772.91;;;15.04;50.66
7532;BME280;3807;49.030;8.714;2023-05-25T03:36:09;99779.59;;;15.06;50.39
7532;BME280;3807;49.030;8.714;2023-05-25T03:38:36;99783.28;;;15.00;50.56
7532;BME280;3807;49.030;8.714;2023-05-25T03:41:01;99785.03;;;15.00;50.42
7532;BME280;3807;49.030;8.714;2023-05-25T03:43:27;99786.25;;;14.91;50.52
7532;BME280;3807;49.030;8.714;2023-05-25T03:45:52;99789.47;;;14.96;50.53
7532;BME280;3807;49.030;8.714;2023-05-25T03:48:17;99784.38;;;14.95;50.54
7532;BME280;3807;49.030;8.714;2023-05-25T03:50:43;99791.28;;;14.74;50.68
7532;BME280;3807;49.030;8.714;2023-05-25T03:53:08;99781.84;;;14.74;50.84
7532;BME280;3807;49.030;8.714;2023-05-25T03:55:33;99778.34;;;14.77;51.15
7532;BME280;3807;49.030;8.714;2023-05-25T03:57:59;99782.88;;;14.70;51.04
7532;BME280;3807;49.030;8.714;2023-05-25T04:00:24;99793.91;;;14.72;50.88
7532;BME280;3807;49.030;8.714;2023-05-25T04:02:49;99797.44;;;14.70;50.75
7532;BME280;3807;49.030;8.714;2023-05-25T04:05:15;99798.09;;;14.75;51.16
7532;BME280;3807;49.030;8.714;2023-05-25T04:07:40;99796.75;;;14.66;51.14
7532;BME280;3807;49.030;8.714;2023-05-25T04:10:06;99790.53;;;14.72;51.05
7532;BME280;3807;49.030;8.714;2023-05-25T04:12:32;99797.56;;;14.67;51.34
7532;BME280;3807;49.030;8.714;2023-05-25T04:14:57;99797.53;;;14.46;51.39
7532;BME280;3807;49.030;8.714;2023-05-25T04:17:23;99799.75;;;14.56;51.62
7532;BME280;3807;49.030;8.714;2023-05-25T04:19:50;99798.28;;;14.70;50.80
7532;BME280;3807;49.030;8.714;2023-05-25T04:22:16;99810.84;;;14.56;51.34
7532;BME280;3807;49.030;8.714;2023-05-25T04:24:41;99811.53;;;14.60;51.22
7532;BME280;3807;49.030;8.714;2023-05-25T04:27:06;99807.09;;;14.43;51.54
7532;BME280;3807;49.030;8.714;2023-05-25T04:29:32;99810.50;;;14.23;51.90
7532;BME280;3807;49.030;8.714;2023-05-25T04:31:57;99810.69;;;14.39;51.54
7532;BME280;3807;49.030;8.714;2023-05-25T04:34:23;99818.37;;;14.39;51.44
7532;BME280;3807;49.030;8.714;2023-05-25T04:36:48;99812.53;;;14.35;51.41
7532;BME280;3807;49.030;8.714;2023-05-25T04:39:14;99816.72;;;14.38;51.41
7532;BME280;3807;49.030;8.714;2023-05-25T04:41:40;99812.72;;;14.30;52.01
7532;BME280;3807;49.030;8.714;2023-05-25T04:44:07;99815.75;;;14.40;51.58
7532;BME280;3807;49.030;8.714;2023-05-25T04:46:32;99822.00;;;14.13;52.03
7532;BME280;3807;49.030;8.714;2023-05-25T04:49:02;99824.50;;;14.35;51.61
7532;BME280;3807;49.030;8.714;2023-05-25T04:51:28;99822.62;;;14.18;51.85
7532;BME280;3807;49.030;8.714;2023-05-25T04:53:53;99823.34;;;14.21;51.69
7532;BME280;3807;49.030;8.714;2023-05-25T04:56:19;99820.28;;;14.34;51.36
7532;BME280;3807;49.030;8.714;2023-05-25T04:58:46;99833.25;;;14.09;52.08
7532;BME280;3807;49.030;8.714;2023-05-25T05:01:11;99831.69;;;14.04;52.29
7532;BME280;3807;49.030;8.714;2023-05-25T05:03:37;99825.69;;;14.05;52.39
7532;BME280;3807;49.030;8.714;2023-05-25T05:06:02;99830.44;;;14.15;52.01
7532;BME280;3807;49.030;8.714;2023-05-25T05:08:28;99839.91;;;13.91;52.62
7532;BME280;3807;49.030;8.714;2023-05-25T05:10:53;99833.53;;;14.01;52.35
7532;BME280;3807;49.030;8.714;2023-05-25T05:13:18;99836.81;;;13.82;52.95
7532;BME280;3807;49.030;8.714;2023-05-25T05:15:43;99829.09;;;14.06;52.13
7532;BME280;3807;49.030;8.714;2023-05-25T05:18:09;99829.25;;;14.01;52.66
7532;BME280;3807;49.030;8.714;2023-05-25T05:20:34;99835.56;;;13.93;52.64
7532;BME280;3807;49.030;8.714;2023-05-25T05:22:59;99832.34;;;13.88;52.76
7532;BME280;3807;49.030;8.714;2023-05-25T05:25:25;99840.47;;;13.99;52.71
7532;BME280;3807;49.030;8.714;2023-05-25T05:27:50;99836.53;;;13.90;52.85
7532;BME280;3807;49.030;8.714;2023-05-25T05:30:16;99836.38;;;13.95;52.71
7532;BME280;3807;49.030;8.714;2023-05-25T05:32:41;99837.72;;;14.03;52.58
7532;BME280;3807;49.030;8.714;2023-05-25T05:35:06;99840.37;;;14.00;52.65
7532;BME280;3807;49.030;8.714;2023-05-25T05:37:32;99852.47;;;14.19;52.20
7532;BME280;3807;49.030;8.714;2023-05-25T05:39:57;99850.31;;;14.08;52.40
7532;BME280;3807;49.030;8.714;2023-05-25T05:42:23;99857.78;;;14.14;52.27
7532;BME280;3807;49.030;8.714;2023-05-25T05:44:48;99868.50;;;14.24;52.21
7532;BME280;3807;49.030;8.714;2023-05-25T05:47:13;99874.56;;;14.21;52.46
7532;BME280;3807;49.030;8.714;2023-05-25T05:49:39;99865.88;;;14.25;52.17
7532;BME280;3807;49.030;8.714;2023-05-25T05:52:04;99869.44;;;14.21;52.29
7532;BME280;3807;49.030;8.714;2023-05-25T05:54:30;99879.97;;;14.36;51.94
7532;BME280;3807;49.030;8.714;2023-05-25T05:56:56;99878.56;;;14.28;51.93
7532;BME280;3807;49.030;8.714;2023-05-25T05:59:21;99877.56;;;14.11;52.75
7532;BME280;3807;49.030;8.714;2023-05-25T06:01:47;99878.09;;;14.41;52.06
7532;BME280;3807;49.030;8.714;2023-05-25T06:04:12;99875.88;;;14.32;52.12
7532;BME280;3807;49.030;8.714;2023-05-25T06:06:39;99879.16;;;14.35;52.13
7532;BME280;3807;49.030;8.714;2023-05-25T06:09:06;99884.47;;;14.30;52.23
7532;BME280;3807;49.030;8.714;2023-05-25T06:11:32;99880.56;;;14.64;51.27
7532;BME280;3807;49.030;8.714;2023-05-25T06:14:00;99890.28;;;14.56;51.52
7532;BME280;3807;49.030;8.714;2023-05-25T06:16:25;99881.34;;;14.66;51.35
7532;BME280;3807;49.030;8.714;2023-05-25T06:18:50;99889.16;;;14.63;51.50
7532;BME280;3807;49.030;8.714;2023-05-25T06:21:16;99885.97;;;14.58;51.63
7532;BME280;3807;49.030;8.714;2023-05-25T06:23:41;99893.81;;;14.32;52.35
7532;BME280;3807;49.030;8.714;2023-05-25T06:26:07;99896.44;;;14.52;51.92
7532;BME280;3807;49.030;8.714;2023-05-25T06:28:32;99904.41;;;14.44;52.14
7532;BME280;3807;49.030;8.714;2023-05-25T06:30:58;99907.63;;;14.71;51.53
7532;BME280;3807;49.030;8.714;2023-05-25T06:33:23;99908.13;;;14.59;51.84
7532;BME280;3807;49.030;8.714;2023-05-25T06:35:48;99907.34;;;14.57;51.94
7532;BME280;3807;49.030;8.714;2023-05-25T06:38:14;99911.06;;;14.70;51.59
7532;BME280;3807;49.030;8.714;2023-05-25T06:40:39;99909.16;;;14.75;51.53
7532;BME280;3807;49.030;8.714;2023-05-25T06:43:05;99912.22;;;14.63;51.90
7532;BME280;3807;49.030;8.714;2023-05-25T06:45:30;99910.13;;;14.73;51.90
7532;BME280;3807;49.030;8.714;2023-05-25T06:47:55;99902.56;;;14.48;52.74
7532;BME280;3807;49.030;8.714;2023-05-25T06:50:21;99908.50;;;14.70;51.88
7532;BME280;3807;49.030;8.714;2023-05-25T06:52:47;99905.47;;;14.61;52.41
7532;BME280;3807;49.030;8.714;2023-05-25T06:55:12;99911.28;;;14.86;51.45
7532;BME280;3807;49.030;8.714;2023-05-25T06:57:37;99908.25;;;14.56;52.87
7532;BME280;3807;49.030;8.714;2023-05-25T07:00:03;99916.44;;;14.64;52.42
7532;BME280;3807;49.030;8.714;2023-05-25T07:02:36;99910.37;;;14.67;52.53
7532;BME280;3807;49.030;8.714;2023-05-25T07:05:01;99913.28;;;15.00;51.35
7532;BME280;3807;49.030;8.714;2023-05-25T07:07:28;99903.78;;;15.02;51.24
7532;BME280;3807;49.030;8.714;2023-05-25T07:09:53;99905.62;;;14.98;51.54
7532;BME280;3807;49.030;8.714;2023-05-25T07:12:19;99901.28;;;15.00;51.47
7532;BME280;3807;49.030;8.714;2023-05-25T07:14:45;99900.38;;;15.01;51.14
7532;BME280;3807;49.030;8.714;2023-05-25T07:17:12;99894.44;;;15.20;51.24
7532;BME280;3807;49.030;8.714;2023-05-25T07:19:38;99900.81;;;15.11;51.63
7532;BME280;3807;49.030;8.714;2023-05-25T07:22:03;99891.66;;;15.06;52.26
7532;BME280;3807;49.030;8.714;2023-05-25T07:24:29;99893.00;;;15.14;51.58
7532;BME280;3807;49.030;8.714;2023-05-25T07:26:54;99897.44;;;15.11;51.89
7532;BME280;3807;49.030;8.714;2023-05-25T07:29:19;99895.19;;;15.03;52.52
7532;BME280;3807;49.030;8.714;2023-05-25T07:31:45;99900.56;;;15.17;52.36
7532;BME280;3807;49.030;8.714;2023-05-25T07:34:10;99899.28;;;15.28;51.71
7532;BME280;3807;49.030;8.714;2023-05-25T07:36:35;99907.97;;;15.23;52.04
7532;BME280;3807;49.030;8.714;2023-05-25T07:39:01;99891.97;;;15.37;51.70
7532;BME280;3807;49.030;8.714;2023-05-25T07:41:26;99902.25;;;15.37;51.67
7532;BME280;3807;49.030;8.714;2023-05-25T07:43:51;99899.84;;;15.53;51.79
7532;BME280;3807;49.030;8.714;2023-05-25T07:46:17;99901.31;;;15.59;51.67
7532;BME280;3807;49.030;8.714;2023-05-25T07:48:45;99900.34;;;15.61;52.07
7532;BME280;3807;49.030;8.714;2023-05-25T07:51:11;99900.88;;;15.69;51.96
7532;BME280;3807;49.030;8.714;2023-05-25T07:53:36;99901.00;;;15.66;52.68
7532;BME280;3807;49.030;8.714;2023-05-25T07:56:01;99899.81;;;15.74;52.81
7532;BME280;3807;49.030;8.714;2023-05-25T07:58:27;99903.28;;;15.91;52.43
7532;BME280;3807;49.030;8.714;2023-05-25T08:00:52;99897.59;;;15.85;52.41
7532;BME280;3807;49.030;8.714;2023-05-25T08:03:18;99901.91;;;15.84;52.07
7532;BME280;3807;49.030;8.714;2023-05-25T08:05:44;99900.31;;;16.01;52.70
7532;BME280;3807;49.030;8.714;2023-05-25T08:08:09;99899.25;;;16.05;52.55
7532;BME280;3807;49.030;8.714;2023-05-25T08:10:35;99903.59;;;16.22;52.47
7532;BME280;3807;49.030;8.714;2023-05-25T08:13:00;99911.13;;;16.25;52.33
7532;BME280;3807;49.030;8.714;2023-05-25T08:15:25;99897.66;;;16.02;52.60
7532;BME280;3807;49.030;8.714;2023-05-25T08:17:51;99906.22;;;16.20;52.28
7532;BME280;3807;49.030;8.714;2023-05-25T08:20:16;99901.91;;;16.20;52.23
7532;BME280;3807;49.030;8.714;2023-05-25T08:22:42;99903.88;;;16.15;52.60
7532;BME280;3807;49.030;8.714;2023-05-25T08:25:08;99909.19;;;16.30;52.39
7532;BME280;3807;49.030;8.714;2023-05-25T08:27:33;99906.03;;;16.42;52.00
7532;BME280;3807;49.030;8.714;2023-05-25T08:30:02;99898.69;;;16.34;52.41
7532;BME280;3807;49.030;8.714;2023-05-25T08:32:27;99898.94;;;16.47;52.12
7532;BME280;3807;49.030;8.714;2023-05-25T08:34:53;99902.41;;;16.29;52.79
7532;BME280;3807;49.030;8.714;2023-05-25T08:37:18;99912.34;;;16.54;52.32
7532;BME280;3807;49.030;8.714;2023-05-25T08:39:46;99906.38;;;16.53;52.70
7532;BME280;3807;49.030;8.714;2023-05-25T08:42:11;99913.25;;;16.70;52.09
7532;BME280;3807;49.030;8.714;2023-05-25T08:44:37;99915.13;;;16.66;52.28
7532;BME280;3807;49.030;8.714;2023-05-25T08:47:05;99911.06;;;16.80;51.59
7532;BME280;3807;49.030;8.714;2023-05-25T08:49:36;99923.50;;;16.89;51.84
7532;BME280;3807;49.030;8.714;2023-05-25T08:52:03;99919.03;;;16.75;52.35
7532;BME280;3807;49.030;8.714;2023-05-25T08:54:33;99916.69;;;16.88;52.16
7532;BME280;3807;49.030;8.714;2023-05-25T08:57:22;99919.84;;;17.10;51.52
7532;BME280;3807;49.030;8.714;2023-05-25T09:00:02;99922.41;;;17.10;51.48
7532;BME280;3807;49.030;8.714;2023-05-25T09:05:16;99916.50;;;17.08;52.04
7532;BME280;3807;49.030;8.714;2023-05-25T09:07:42;99912.34;;;17.39;50.90
7532;BME280;3807;49.030;8.714;2023-05-25T09:10:10;99910.13;;;17.49;50.87
7532;BME280;3807;49.030;8.714;2023-05-25T09:12:37;99917.66;;;17.36;51.45
7532;BME280;3807;49.030;8.714;2023-05-25T09:15:03;99904.91;;;17.50;50.98
7532;BME280;3807;49.030;8.714;2023-05-25T09:17:29;99916.72;;;17.70;50.94
7532;BME280;3807;49.030;8.714;2023-05-25T09:19:54;99915.22;;;17.66;50.94
7532;BME280;3807;49.030;8.714;2023-05-25T09:22:20;99910.16;;;17.65;51.06
7532;BME280;3807;49.030;8.714;2023-05-25T09:24:46;99906.12;;;17.76;51.15
7532;BME280;3807;49.030;8.714;2023-05-25T09:27:16;99909.37;;;17.96;50.96
7532;BME280;3807;49.030;8.714;2023-05-25T09:29:42;99912.63;;;17.99;50.46
7532;BME280;3807;49.030;8.714;2023-05-25T09:32:08;99896.41;;;17.97;50.44
7532;BME280;3807;49.030;8.714;2023-05-25T09:34:33;99902.53;;;18.11;50.34
7532;BME280;3807;49.030;8.714;2023-05-25T09:37:03;99911.66;;;18.16;49.98
7532;BME280;3807;49.030;8.714;2023-05-25T09:39:28;99913.59;;;18.13;50.32
7532;BME280;3807;49.030;8.714;2023-05-25T09:41:54;99917.03;;;18.13;50.01
7532;BME280;3807;49.030;8.714;2023-05-25T09:44:20;99908.59;;;18.25;49.94
7532;BME280;3807;49.030;8.714;2023-05-25T09:46:46;99919.63;;;18.43;49.76
7532;BME280;3807;49.030;8.714;2023-05-25T09:49:11;99917.66;;;18.63;48.85
7532;BME280;3807;49.030;8.714;2023-05-25T09:51:37;99903.69;;;18.67;48.49
7532;BME280;3807;49.030;8.714;2023-05-25T09:54:03;99904.66;;;18.80;48.92
7532;BME280;3807;49.030;8.714;2023-05-25T09:56:31;99901.94;;;18.97;48.65
7532;BME280;3807;49.030;8.714;2023-05-25T09:58:57;99902.56;;;18.87;48.55
7532;BME280;3807;49.030;8.714;2023-05-25T10:01:23;99904.22;;;19.02;48.44
7532;BME280;3807;49.030;8.714;2023-05-25T10:03:49;99906.34;;;19.10;48.32
7532;BME280;3807;49.030;8.714;2023-05-25T10:06:16;99908.69;;;19.14;48.73
7532;BME280;3807;49.030;8.714;2023-05-25T10:08:46;99905.72;;;19.20;48.37
7532;BME280;3807;49.030;8.714;2023-05-25T10:11:13;99904.69;;;19.37;48.06
7532;BME280;3807;49.030;8.714;2023-05-25T10:13:40;99902.03;;;19.53;47.81
7532;BME280;3807;49.030;8.714;2023-05-25T10:16:08;99907.03;;;19.70;47.08
7532;BME280;3807;49.030;8.714;2023-05-25T10:18:41;99911.91;;;19.75;47.28
7532;BME280;3807;49.030;8.714;2023-05-25T10:21:08;99903.94;;;19.78;47.26
7532;BME280;3807;49.030;8.714;2023-05-25T10:23:38;99900.22;;;19.96;46.76
7532;BME280;3807;49.030;8.714;2023-05-25T10:26:07;99900.53;;;20.19;46.52
7532;BME280;3807;49.030;8.714;2023-05-25T10:28:35;99897.72;;;20.22;46.11
7532;BME280;3807;49.030;8.714;2023-05-25T10:31:02;99900.28;;;20.49;45.81
7532;BME280;3807;49.030;8.714;2023-05-25T10:33:28;99904.00;;;20.45;46.45
7532;BME280;3807;49.030;8.714;2023-05-25T10:35:54;99909.72;;;20.50;46.39
7532;BME280;3807;49.030;8.714;2023-05-25T10:38:24;99902.22;;;20.73;45.65
7532;BME280;3807;49.030;8.714;2023-05-25T10:40:52;99898.41;;;21.04;44.78
7532;BME280;3807;49.030;8.714;2023-05-25T10:43:19;99900.38;;;21.13;44.64
7532;BME280;3807;49.030;8.714;2023-05-25T10:45:46;99902.75;;;21.16;44.96
7532;BME280;3807;49.030;8.714;2023-05-25T10:48:12;99909.19;;;21.36;43.89
7532;BME280;3807;49.030;8.714;2023-05-25T10:50:38;99902.25;;;21.36;44.27
7532;BME280;3807;49.030;8.714;2023-05-25T10:53:11;99885.53;;;21.53;44.56
7532;BME280;3807;49.030;8.714;2023-05-25T10:55:48;99898.00;;;21.72;44.42
7532;BME280;3807;49.030;8.714;2023-05-25T10:58:26;99894.37;;;21.75;43.77
7532;BME280;3807;49.030;8.714;2023-05-25T11:00:59;99902.69;;;22.04;43.69
7532;BME280;3807;49.030;8.714;2023-05-25T11:09:22;99907.19;;;22.26;43.37
7532;BME280;3807;49.030;8.714;2023-05-25T11:14:41;99914.66;;;22.42;42.82
7532;BME280;3807;49.030;8.714;2023-05-25T11:19:45;99907.31;;;22.59;42.55
7532;BME280;3807;49.030;8.714;2023-05-25T11:22:21;99906.59;;;22.93;41.48
7532;BME280;3807;49.030;8.714;2023-05-25T11:24:51;99908.72;;;22.99;41.17
7532;BME280;3807;49.030;8.714;2023-05-25T11:27:28;99905.41;;;23.08;40.98
7532;BME280;3807;49.030;8.714;2023-05-25T11:29:54;99905.41;;;23.08;41.35
7532;BME280;3807;49.030;8.714;2023-05-25T11:32:24;99892.66;;;23.50;40.69
7532;BME280;3807;49.030;8.714;2023-05-25T11:34:53;99903.91;;;23.50;41.29
7532;BME280;3807;49.030;8.714;2023-05-25T11:37:21;99891.50;;;23.54;40.81
7532;BME280;3807;49.030;8.714;2023-05-25T11:39:52;99900.22;;;23.64;41.06
7532;BME280;3807;49.030;8.714;2023-05-25T11:42:24;99897.72;;;23.63;39.75
7532;BME280;3807;49.030;8.714;2023-05-25T11:44:50;99898.91;;;23.81;40.80
7532;BME280;3807;49.030;8.714;2023-05-25T11:47:16;99892.59;;;23.95;40.46
7532;BME280;3807;49.030;8.714;2023-05-25T11:49:47;99898.19;;;24.22;39.40
7532;BME280;3807;49.030;8.714;2023-05-25T11:52:17;99894.31;;;24.17;39.50
7532;BME280;3807;49.030;8.714;2023-05-25T11:54:44;99899.38;;;24.18;39.66
7532;BME280;3807;49.030;8.714;2023-05-25T11:57:14;99895.88;;;24.40;38.62
7532;BME280;3807;49.030;8.714;2023-05-25T11:59:46;99891.53;;;24.41;39.08
7532;BME280;3807;49.030;8.714;2023-05-25T12:02:12;99898.06;;;24.56;39.54
7532;BME280;3807;49.030;8.714;2023-05-25T12:04:38;99890.69;;;24.61;39.24
7532;BME280;3807;49.030;8.714;2023-05-25T12:07:06;99892.38;;;24.72;38.77
7532;BME280;3807;49.030;8.714;2023-05-25T12:09:32;99900.28;;;24.82;38.44
7532;BME280;3807;49.030;8.714;2023-05-25T12:11:59;99883.06;;;25.11;38.41
7532;BME280;3807;49.030;8.714;2023-05-25T12:14:26;99880.19;;;25.14;38.82
7532;BME280;3807;49.030;8.714;2023-05-25T12:16:52;99881.72;;;25.27;37.82
7532;BME280;3807;49.030;8.714;2023-05-25T12:19:18;99886.06;;;25.16;38.67
7532;BME280;3807;49.030;8.714;2023-05-25T12:21:44;99885.56;;;25.23;38.23
7532;BME280;3807;49.030;8.714;2023-05-25T12:24:09;99882.75;;;25.45;38.57
7532;BME280;3807;49.030;8.714;2023-05-25T12:26:51;99875.25;;;25.71;37.58
7532;BME280;3807;49.030;8.714;2023-05-25T12:29:23;99883.28;;;25.99;36.91
7532;BME280;3807;49.030;8.714;2023-05-25T12:31:49;99877.25;;;25.88;38.09
7532;BME280;3807;49.030;8.714;2023-05-25T12:34:16;99878.47;;;25.94;37.86
7532;BME280;3807;49.030;8.714;2023-05-25T12:39:11;99876.69;;;26.04;36.89
7532;BME280;3807;49.030;8.714;2023-05-25T12:41:50;99877.59;;;25.74;36.08
7532;BME280;3807;49.030;8.714;2023-05-25T12:44:17;99882.62;;;26.26;36.69
7532;BME280;3807;49.030;8.714;2023-05-25T12:46:43;99885.63;;;26.21;38.07
7532;BME280;3807;49.030;8.714;2023-05-25T12:49:31;99889.75;;;26.53;37.11
7532;BME280;3807;49.030;8.714;2023-05-25T12:52:00;99887.41;;;26.30;37.63
7532;BME280;3807;49.030;8.714;2023-05-25T12:54:43;99885.78;;;26.29;37.80
7532;BME280;3807;49.030;8.714;2023-05-25T12:57:14;99875.69;;;26.64;37.26
7532;BME280;3807;49.030;8.714;2023-05-25T12:59:42;99881.16;;;26.90;35.81
7532;BME280;3807;49.030;8.714;2023-05-25T13:02:09;99882.81;;;26.81;37.11
7532;BME280;3807;49.030;8.714;2023-05-25T13:04:36;99879.75;;;26.95;37.28
7532;BME280;3807;49.030;8.714;2023-05-25T13:07:02;99878.81;;;26.87;37.14
7532;BME280;3807;49.030;8.714;2023-05-25T13:09:28;99877.72;;;26.89;36.75
7532;BME280;3807;49.030;8.714;2023-05-25T13:11:54;99864.03;;;27.15;36.63
7532;BME280;3807;49.030;8.714;2023-05-25T13:14:21;99871.63;;;26.98;36.83
7532;BME280;3807;49.030;8.714;2023-05-25T13:16:47;99873.38;;;27.17;36.92
7532;BME280;3807;49.030;8.714;2023-05-25T13:19:13;99866.47;;;27.44;36.57
7532;BME280;3807;49.030;8.714;2023-05-25T13:21:38;99869.94;;;27.17;36.98
7532;BME280;3807;49.030;8.714;2023-05-25T13:24:04;99872.13;;;27.49;36.78
7532;BME280;3807;49.030;8.714;2023-05-25T13:26:30;99867.97;;;27.74;36.31
7532;BME280;3807;49.030;8.714;2023-05-25T13:28:55;99863.28;;;27.50;36.42
7532;BME280;3807;49.030;8.714;2023-05-25T13:31:20;99869.81;;;27.64;36.01
7532;BME280;3807;49.030;8.714;2023-05-25T13:33:46;99869.81;;;27.64;36.58
7532;BME280;3807;49.030;8.714;2023-05-25T13:36:11;99861.75;;;27.75;36.45
7532;BME280;3807;49.030;8.714;2023-05-25T13:38:37;99866.59;;;27.70;36.71